createdAt,value
2018-03-16T00:01:48.489Z,10.20
2018-03-16T00:04:15.989Z,10.55
2018-03-16T00:06:43.712Z,10.75
2018-03-16T00:09:11.188Z,11.27
2018-03-16T00:11:38.808Z,11.15
2018-03-16T00:14:06.297Z,11.20
2018-03-16T00:16:33.848Z,11.60
2018-03-16T00:19:01.364Z,11.12
2018-03-16T00:21:31.293Z,11.50
2018-03-16T00:23:58.760Z,11.18
2018-03-16T00:26:26.256Z,10.80
2018-03-16T00:28:53.737Z,11.32
2018-03-16T00:31:21.397Z,11.85
2018-03-16T00:33:48.852Z,11.57
2018-03-16T00:36:16.341Z,11.93
2018-03-16T00:38:43.817Z,11.05
2018-03-16T00:41:11.313Z,10.70
2018-03-16T00:43:38.815Z,10.95
2018-03-16T00:46:06.315Z,11.65
2018-03-16T00:48:33.808Z,11.10
2018-03-16T00:51:01.306Z,12.30
2018-03-16T00:53:28.869Z,12.82
2018-03-16T00:55:57.144Z,12.10
2018-03-16T00:58:24.628Z,12.18
2018-03-16T01:00:52.093Z,12.23
2018-03-16T01:03:19.585Z,12.00
2018-03-16T01:05:47.857Z,11.93
2018-03-16T01:08:16.103Z,11.65
2018-03-16T01:10:44.566Z,11.52
2018-03-16T01:13:12.069Z,11.40
2018-03-16T01:15:39.533Z,11.12
2018-03-16T01:18:07.031Z,12.20
2018-03-16T01:20:40.228Z,12.25
2018-03-16T01:23:07.761Z,12.73
2018-03-16T01:25:35.269Z,11.60
2018-03-16T01:28:02.764Z,11.98
2018-03-16T01:30:31.026Z,12.33
2018-03-16T01:32:58.521Z,11.88
2018-03-16T01:35:26.779Z,12.02
2018-03-16T01:37:54.265Z,12.02
2018-03-16T01:40:21.766Z,11.88
2018-03-16T01:42:49.252Z,10.90
2018-03-16T01:45:16.749Z,12.15
2018-03-16T01:47:44.241Z,13.10
2018-03-16T01:50:11.739Z,12.50
2018-03-16T01:52:57.350Z,13.60
2018-03-16T01:55:24.836Z,12.55
2018-03-16T01:57:52.333Z,13.45
2018-03-16T02:00:20.033Z,13.70
2018-03-16T02:02:48.268Z,13.50
2018-03-16T02:05:37.517Z,13.90
2018-03-16T02:08:05.776Z,12.30
2018-03-16T02:10:33.261Z,12.35
2018-03-16T02:13:02.233Z,12.82
2018-03-16T02:15:31.456Z,11.85
2018-03-16T02:17:58.970Z,12.68
2018-03-16T02:20:26.481Z,12.93
2018-03-16T02:22:53.953Z,12.65
2018-03-16T02:25:21.564Z,12.77
2018-03-16T02:27:49.384Z,11.65
2018-03-16T02:30:16.894Z,12.27
2018-03-16T02:32:44.377Z,12.55
2018-03-16T02:35:12.622Z,13.00
2018-03-16T02:37:40.154Z,12.32
2018-03-16T02:40:31.613Z,12.95
2018-03-16T02:43:00.001Z,13.07
2018-03-16T02:45:27.491Z,12.57
2018-03-16T02:47:54.964Z,12.60
2018-03-16T02:50:22.731Z,12.90
2018-03-16T02:52:55.022Z,12.68
2018-03-16T02:55:22.514Z,13.10
2018-03-16T02:57:49.990Z,12.55
2018-03-16T03:00:17.479Z,12.40
2018-03-16T03:02:45.761Z,11.95
2018-03-16T03:05:13.990Z,12.02
2018-03-16T03:07:41.549Z,12.88
2018-03-16T03:10:09.274Z,12.10
2018-03-16T03:12:36.729Z,11.82
2018-03-16T03:15:04.201Z,12.50
2018-03-16T03:17:31.693Z,10.82
2018-03-16T03:20:04.014Z,12.05
2018-03-16T03:22:32.372Z,12.57
2018-03-16T03:25:00.683Z,12.05
2018-03-16T03:27:28.127Z,10.60
2018-03-16T03:29:56.374Z,11.77
2018-03-16T03:32:23.847Z,11.90
2018-03-16T03:34:51.352Z,11.38
2018-03-16T03:37:19.607Z,11.73
2018-03-16T03:39:47.206Z,10.90
2018-03-16T03:42:15.469Z,11.27
2018-03-16T03:44:42.928Z,11.00
2018-03-16T03:47:10.820Z,11.50
2018-03-16T03:49:38.305Z,10.38
2018-03-16T03:52:05.784Z,11.40
2018-03-16T03:54:34.036Z,10.52
2018-03-16T03:57:01.513Z,11.00
2018-03-16T03:59:29.011Z,10.60
2018-03-16T04:01:57.365Z,10.13
2018-03-16T04:04:33.674Z,10.48
2018-03-16T04:07:02.078Z,11.27
2018-03-16T04:09:30.349Z,10.60
2018-03-16T04:11:57.800Z,11.00
2018-03-16T04:14:25.274Z,10.50
2018-03-16T04:16:52.907Z,10.32
2018-03-16T04:19:20.417Z,10.00
2018-03-16T04:21:47.905Z,10.00
2018-03-16T04:24:16.540Z,10.48
2018-03-16T04:26:48.610Z,11.50
2018-03-16T04:29:16.134Z,11.15
2018-03-16T04:31:43.655Z,9.73
2018-03-16T04:34:11.959Z,10.02
2018-03-16T04:36:40.208Z,10.20
2018-03-16T04:39:11.966Z,9.60
2018-03-16T04:41:40.182Z,9.65
2018-03-16T04:44:07.694Z,9.80
2018-03-16T04:46:36.429Z,9.95
2018-03-16T04:49:04.629Z,8.95
2018-03-16T04:51:32.115Z,9.98
2018-03-16T04:53:59.603Z,9.10
2018-03-16T04:56:27.524Z,9.63
2018-03-16T04:58:55.768Z,10.10
2018-03-16T05:01:23.218Z,10.60
2018-03-16T05:03:50.718Z,11.35
2018-03-16T05:06:19.123Z,11.15
2018-03-16T05:11:44.229Z,11.15
2018-03-16T05:14:11.724Z,10.82
2018-03-16T05:16:39.222Z,11.23
2018-03-16T05:19:07.474Z,11.15
2018-03-16T05:21:34.974Z,11.23
2018-03-16T05:24:02.468Z,10.60
2018-03-16T05:26:29.992Z,10.50
2018-03-16T05:28:57.638Z,11.25
2018-03-16T05:31:25.127Z,11.35
2018-03-16T05:33:52.598Z,11.45
2018-03-16T05:36:20.085Z,10.55
2018-03-16T05:38:53.316Z,10.75
2018-03-16T05:41:29.456Z,10.87
2018-03-16T05:43:57.817Z,10.70
2018-03-16T05:46:25.285Z,11.02
2018-03-16T05:48:52.765Z,9.85
2018-03-16T05:51:20.552Z,11.23
2018-03-16T05:53:48.044Z,10.55
2018-03-16T05:56:38.533Z,10.18
2018-03-16T05:59:06.740Z,10.30
2018-03-16T06:01:49.872Z,11.52
2018-03-16T06:04:17.368Z,10.48
2018-03-16T06:06:51.650Z,10.20
2018-03-16T06:09:21.831Z,10.70
2018-03-16T06:11:52.001Z,11.07
2018-03-16T06:14:19.480Z,11.88
2018-03-16T06:17:11.396Z,12.45
2018-03-16T06:19:39.202Z,10.85
2018-03-16T06:22:16.985Z,11.82
2018-03-16T06:24:51.816Z,10.70
2018-03-16T06:27:19.344Z,11.10
2018-03-16T06:29:59.592Z,11.57
2018-03-16T06:32:31.544Z,11.60
2018-03-16T06:34:59.242Z,11.18
2018-03-16T06:37:26.827Z,10.93
2018-03-16T06:39:54.319Z,11.85
2018-03-16T06:42:26.969Z,10.68
2018-03-16T06:44:54.505Z,10.57
2018-03-16T06:47:28.128Z,11.10
2018-03-16T06:49:55.639Z,10.80
2018-03-16T06:52:23.123Z,9.97
2018-03-16T06:54:50.614Z,10.65
2018-03-16T06:57:19.157Z,10.20
2018-03-16T06:59:46.680Z,10.70
2018-03-16T07:02:28.244Z,10.65
2018-03-16T07:04:55.788Z,10.87
2018-03-16T07:10:18.954Z,10.45
2018-03-16T07:12:47.331Z,11.38
2018-03-16T07:15:27.717Z,11.90
2018-03-16T07:20:50.872Z,10.15
2018-03-16T07:23:30.136Z,10.35
2018-03-16T07:26:10.526Z,11.35
2018-03-16T07:28:45.479Z,11.23
2018-03-16T07:31:20.176Z,11.55
2018-03-16T07:33:47.667Z,11.27
2018-03-16T07:36:15.168Z,11.43
2018-03-16T07:38:56.285Z,11.53
2018-03-16T07:41:24.879Z,12.02
2018-03-16T07:43:52.437Z,11.07
2018-03-16T07:46:27.920Z,12.05
2018-03-16T07:49:00.001Z,12.17
2018-03-16T07:51:28.552Z,11.57
2018-03-16T07:53:59.879Z,11.98
2018-03-16T07:56:28.749Z,12.32
2018-03-16T07:58:59.680Z,12.50
2018-03-16T08:01:28.902Z,12.45
2018-03-16T08:03:59.655Z,12.40
2018-03-16T08:06:28.738Z,11.88
2018-03-16T08:09:00.773Z,11.35
2018-03-16T08:11:29.227Z,12.00
2018-03-16T08:13:56.717Z,11.63
2018-03-16T08:16:24.208Z,11.60
2018-03-16T08:18:52.661Z,12.73
2018-03-16T08:44:21.034Z,9.25
2018-03-16T08:46:48.544Z,8.70
2018-03-16T08:58:00.508Z,9.25
2018-03-16T09:03:29.036Z,9.07
2018-03-16T09:06:00.233Z,9.23
2018-03-16T09:08:29.090Z,9.50
2018-03-16T09:13:58.246Z,9.50
2018-03-16T09:16:29.496Z,10.30
2018-03-16T09:19:10.406Z,10.18
2018-03-16T09:46:12.114Z,13.02
2018-03-16T09:48:39.833Z,12.43
2018-03-16T09:51:07.436Z,11.25
2018-03-16T09:56:28.820Z,11.40
2018-03-16T09:58:58.958Z,11.20
2018-03-16T10:01:28.900Z,11.15
2018-03-16T10:04:09.259Z,11.40
2018-03-16T10:06:51.997Z,10.75
2018-03-16T10:09:19.457Z,10.65
2018-03-16T10:14:47.062Z,10.93
2018-03-16T10:17:22.486Z,10.10
2018-03-16T10:19:50.019Z,9.90
2018-03-16T10:22:20.576Z,10.10
2018-03-16T10:24:54.308Z,9.95
2018-03-16T10:27:23.981Z,10.90
2018-03-16T10:29:51.484Z,11.67
2018-03-16T10:32:18.979Z,12.15
2018-03-16T10:37:38.693Z,11.57
2018-03-16T10:43:32.921Z,9.15
2018-03-16T10:46:00.764Z,10.88
2018-03-16T10:48:54.682Z,8.25
2018-03-16T10:51:28.660Z,8.88
2018-03-16T10:53:58.621Z,10.73
2018-03-16T10:56:30.232Z,9.40
2018-03-16T10:59:01.962Z,10.15
2018-03-16T11:10:40.362Z,9.00
2018-03-16T11:16:00.370Z,8.52
2018-03-16T11:18:34.791Z,7.90
2018-03-16T11:21:24.836Z,8.13
2018-03-16T11:23:52.322Z,7.03
2018-03-16T11:26:19.848Z,8.75
2018-03-16T11:31:23.539Z,6.80
2018-03-16T11:33:59.240Z,7.20
2018-03-16T11:36:29.269Z,6.78
2018-03-16T11:39:00.294Z,6.65
2018-03-16T11:41:30.897Z,6.40
2018-03-16T11:43:59.404Z,6.77
2018-03-16T11:46:30.282Z,6.30
2018-03-16T11:48:59.148Z,6.80
2018-03-16T11:51:28.350Z,7.05
2018-03-16T11:53:59.194Z,6.55
2018-03-16T11:56:39.542Z,7.70
2018-03-16T12:01:48.378Z,7.93
2018-03-16T12:06:58.750Z,7.53
2018-03-16T12:09:39.186Z,6.60
2018-03-16T12:12:10.381Z,6.23
2018-03-16T12:14:58.893Z,6.32
2018-03-16T12:20:41.258Z,8.98
2018-03-16T12:23:08.828Z,7.22
2018-03-16T12:25:36.360Z,7.10
2018-03-16T12:28:07.922Z,5.93
2018-03-16T12:30:36.271Z,6.70
2018-03-16T12:33:16.587Z,7.40
2018-03-16T12:35:45.765Z,6.10
2018-03-16T12:38:28.886Z,5.87
2018-03-16T12:40:59.602Z,6.37
2018-03-16T12:43:33.011Z,6.78
2018-03-16T12:46:02.852Z,6.20
2018-03-16T12:48:35.249Z,5.68
2018-03-16T12:51:07.067Z,6.23
2018-03-16T12:53:42.714Z,6.95
2018-03-16T12:56:10.974Z,7.40
2018-03-16T13:01:37.339Z,6.80
2018-03-16T13:09:39.618Z,9.20
2018-03-16T13:12:14.603Z,9.57
2018-03-16T13:14:48.736Z,9.00
2018-03-16T13:17:19.852Z,8.80
2018-03-16T13:19:58.529Z,9.50
2018-03-16T13:22:27.749Z,9.05
2018-03-16T13:24:58.368Z,9.00
2018-03-16T13:27:27.944Z,9.55
2018-03-16T13:30:02.589Z,8.80
2018-03-16T13:32:30.097Z,10.20
2018-03-16T13:35:02.471Z,10.13
2018-03-16T13:37:30.611Z,11.43
2018-03-16T13:40:03.302Z,10.98
2018-03-16T13:42:31.647Z,10.63
2018-03-16T13:44:59.212Z,10.50
2018-03-16T13:50:28.535Z,11.15
2018-03-16T13:53:08.305Z,12.05
2018-03-16T13:58:20.088Z,10.25
2018-03-16T14:00:48.409Z,10.13
2018-03-16T14:05:51.913Z,11.73
2018-03-16T14:08:23.734Z,9.57
2018-03-16T14:10:53.772Z,8.90
2018-03-16T14:13:31.454Z,10.97
2018-03-16T14:15:59.117Z,9.25
2018-03-16T14:18:28.411Z,8.20
2018-03-16T14:20:57.358Z,8.23
2018-03-16T14:23:28.810Z,8.50
2018-03-16T14:26:00.019Z,6.90
2018-03-16T14:28:29.525Z,7.40
2018-03-16T14:30:59.140Z,6.10
2018-03-16T14:33:30.085Z,7.22
2018-03-16T14:35:58.139Z,6.05
2018-03-16T14:38:31.613Z,7.35
2018-03-16T14:40:59.200Z,7.10
2018-03-16T14:43:26.700Z,7.05
2018-03-16T14:45:58.541Z,6.00
2018-03-16T14:48:28.788Z,6.55
2018-03-16T14:51:00.107Z,6.80
2018-03-16T14:53:28.913Z,5.70
2018-03-16T14:55:58.635Z,6.37
2018-03-16T14:58:28.423Z,5.97
2018-03-16T15:01:00.190Z,5.65
2018-03-16T15:03:28.870Z,5.40
2018-03-16T15:05:58.826Z,5.18
2018-03-16T15:08:27.486Z,8.38
2018-03-16T15:11:13.672Z,5.68
2018-03-16T15:16:24.885Z,4.50
2018-03-16T15:18:53.049Z,4.30
2018-03-16T15:21:20.642Z,4.05
2018-03-16T15:23:49.061Z,4.57
2018-03-16T15:26:16.818Z,4.90
2018-03-16T15:28:44.477Z,3.55
2018-03-16T15:31:12.006Z,4.20
2018-03-16T15:33:40.245Z,4.30
2018-03-16T15:36:08.597Z,4.10
2018-03-16T15:38:37.005Z,5.68
2018-03-16T15:41:04.520Z,4.10
2018-03-16T15:43:32.026Z,3.60
2018-03-16T15:45:59.594Z,3.92
2018-03-16T15:48:27.147Z,3.67
2018-03-16T15:51:18.064Z,4.20
2018-03-16T15:53:48.470Z,4.60
2018-03-16T15:56:19.829Z,5.37
2018-03-16T16:02:14.012Z,6.18
2018-03-16T16:04:49.501Z,6.30
2018-03-16T16:10:11.851Z,6.05
2018-03-16T16:12:46.131Z,6.13
2018-03-16T16:15:13.760Z,6.30
2018-03-16T16:17:44.798Z,6.45
2018-03-16T16:20:21.513Z,6.97
2018-03-16T16:22:51.771Z,6.75
2018-03-16T16:25:21.897Z,6.47
2018-03-16T16:27:51.987Z,6.55
2018-03-16T16:30:19.462Z,6.10
2018-03-16T16:35:27.596Z,7.20
2018-03-16T16:50:20.493Z,9.00
2018-03-16T16:53:05.571Z,9.77
2018-03-16T16:55:36.253Z,9.85
2018-03-16T16:58:06.780Z,9.10
2018-03-16T17:03:42.088Z,9.45
2018-03-16T17:06:15.926Z,8.70
2018-03-16T17:11:46.535Z,8.48
2018-03-16T17:14:16.977Z,9.48
2018-03-16T17:16:46.237Z,9.00
2018-03-16T17:19:17.632Z,8.27
2018-03-16T17:21:46.866Z,9.18
2018-03-16T17:24:15.537Z,9.32
2018-03-16T17:26:46.510Z,10.60
2018-03-16T17:29:15.376Z,10.15
2018-03-16T17:31:45.444Z,10.10
2018-03-16T17:34:14.216Z,9.35
2018-03-16T17:36:42.496Z,9.45
2018-03-16T17:39:10.904Z,10.00
2018-03-16T17:41:39.365Z,9.85
2018-03-16T17:44:14.772Z,9.93
2018-03-16T17:46:42.323Z,9.45
2018-03-16T17:49:09.985Z,10.13
2018-03-16T17:51:41.401Z,9.63
2018-03-16T17:54:08.951Z,11.85
2018-03-16T17:56:37.258Z,10.18
2018-03-16T17:59:08.277Z,12.32
2018-03-16T18:01:35.977Z,14.13
2018-03-16T18:04:05.384Z,12.77
2018-03-16T18:09:10.213Z,10.88
2018-03-16T18:11:40.370Z,10.77
2018-03-16T18:14:07.991Z,14.90
2018-03-16T18:16:49.511Z,13.05
2018-03-16T18:19:17.337Z,13.57
2018-03-16T18:21:55.456Z,14.27
2018-03-16T18:24:22.958Z,14.98
2018-03-16T18:27:05.698Z,14.13
2018-03-16T18:29:33.327Z,16.00
2018-03-16T18:32:12.049Z,14.85
2018-03-16T18:34:39.718Z,13.85
2018-03-16T18:37:14.592Z,13.80
2018-03-16T18:39:42.156Z,14.10
2018-03-16T18:42:13.606Z,13.30
2018-03-16T18:44:41.360Z,14.30
2018-03-16T18:47:08.976Z,12.80
2018-03-16T18:49:36.614Z,15.77
2018-03-16T18:52:07.911Z,17.97
2018-03-16T18:54:36.463Z,19.87
2018-03-16T18:57:17.026Z,18.73
2018-03-16T18:59:47.373Z,22.65
2018-03-16T19:02:17.960Z,19.48
2018-03-16T19:04:50.742Z,22.33
2018-03-16T19:07:24.425Z,20.35
2018-03-16T19:09:58.378Z,19.27
2018-03-16T19:12:31.647Z,18.33
2018-03-16T19:15:15.729Z,22.25
2018-03-16T19:17:46.234Z,21.23
2018-03-16T19:20:17.021Z,21.37
2018-03-16T19:23:14.685Z,22.55
2018-03-16T19:25:49.590Z,14.65
2018-03-16T19:28:17.294Z,15.05
2018-03-16T20:17:47.845Z,14.60
2018-03-16T20:23:22.979Z,14.60
2018-03-16T20:28:47.692Z,13.48
2018-03-16T20:31:17.427Z,13.52
2018-03-16T20:33:55.182Z,13.10
2018-03-16T20:36:28.681Z,13.50
2018-03-16T20:38:56.951Z,14.67
2018-03-16T20:41:26.214Z,14.48
2018-03-16T20:43:59.488Z,14.60
2018-03-16T20:46:27.188Z,15.32
2018-03-16T20:48:59.056Z,14.95
2018-03-16T20:51:28.637Z,15.00
2018-03-16T21:06:25.493Z,16.45
2018-03-16T21:08:57.467Z,15.63
2018-03-16T21:15:58.391Z,15.63
2018-03-16T21:23:58.107Z,15.90
2018-03-16T21:26:28.719Z,16.02
2018-03-16T21:28:56.499Z,15.97
2018-03-16T21:31:25.655Z,17.10
2018-03-16T21:33:54.726Z,16.70
2018-03-16T21:36:22.297Z,16.33
2018-03-16T21:38:49.796Z,16.90
2018-03-16T21:41:17.388Z,17.40
2018-03-16T21:43:44.960Z,16.40
2018-03-16T21:46:13.303Z,16.83
2018-03-16T21:48:41.021Z,15.90
2018-03-16T21:51:09.520Z,16.35
2018-03-16T21:53:37.032Z,16.98
2018-03-16T21:56:04.588Z,17.10
2018-03-16T21:58:32.152Z,17.65
2018-03-16T22:00:59.669Z,18.70
2018-03-16T22:03:44.201Z,18.10
2018-03-16T22:06:24.788Z,18.30
2018-03-16T22:08:56.258Z,19.42
2018-03-16T22:11:23.808Z,19.08
2018-03-16T22:13:52.099Z,18.80
2018-03-16T22:16:20.388Z,19.30
2018-03-16T22:18:51.645Z,19.37
2018-03-16T22:21:19.172Z,18.90
2018-03-16T22:23:46.729Z,18.17
2018-03-16T22:26:14.347Z,19.70
2018-03-16T22:28:42.041Z,18.52
2018-03-16T22:36:57.562Z,19.45
2018-03-16T22:39:27.132Z,18.33
2018-03-16T22:41:54.633Z,20.25
2018-03-16T22:44:32.847Z,19.20
2018-03-16T22:47:00.383Z,19.83
2018-03-16T22:52:25.369Z,19.27
2018-03-16T22:54:53.007Z,20.35
2018-03-16T22:57:21.465Z,19.23
2018-03-16T22:59:49.008Z,23.10
2018-03-16T23:02:16.519Z,21.23
2018-03-16T23:04:44.845Z,20.00
2018-03-16T23:07:12.347Z,20.90
2018-03-16T23:09:39.856Z,21.67
2018-03-16T23:12:07.397Z,21.43
2018-03-16T23:14:34.909Z,21.00
2018-03-16T23:17:17.121Z,20.40
2018-03-16T23:19:44.653Z,20.08
2018-03-16T23:22:12.803Z,20.48
2018-03-16T23:24:42.592Z,19.73
2018-03-16T23:27:13.636Z,19.87
2018-03-16T23:30:00.077Z,20.10
2018-03-16T23:32:28.384Z,17.77
2018-03-16T23:34:55.961Z,18.05
2018-03-16T23:37:24.350Z,17.02
2018-03-16T23:39:51.841Z,17.50
2018-03-16T23:42:23.765Z,16.83
2018-03-16T23:44:52.226Z,17.77
2018-03-16T23:47:22.816Z,17.58
2018-03-16T23:49:54.137Z,16.95
2018-03-16T23:52:22.603Z,16.35
2018-03-16T23:54:50.138Z,17.35
2018-03-16T23:57:17.630Z,18.00
2018-03-16T23:59:45.130Z,17.58
